Markleysburg, PA (15459)

3:21 PM EDT on September 22, 2014 (GMT -0400)
Donna's Weather | Change Station
CLOSE
Current Station
Personal Weather Station
Location: Markleysburg, PA
Elevation: 2306 ft
Nearby Weather Stations
Active Advisory: Frost Advisory

Elev 2306 ft 39.77 °N, 79.50 °W | Updated 4 seconds ago

Overcast
Overcast
54.5 °F
Feels Like 54.5 °F
N
0.0
Wind Variable Wind from WSW
Gusts 0.0 mph

Today
High -- | Low -- °F
--% Chance of Precip.
Yesterday
High -- | Low -- °F
Precip. -- in
7:05 AM 7:14 PM
Waning Crescent, 2% visible
Pressure 30.15 in
Visibility 10.0 miles
Clouds Scattered Clouds 2400 ft
Overcast 2900 ft
Dew Point 40 °F
Humidity 58%
Rainfall 0.04 in
Snow Depth Not available.
UV 2 out of 12
Pollen 3.30 out of 12
Air Quality Not available.
Flu Activity Not available.
METAR K2G4 221905Z AUTO 29008G14KT 262V352 10SM SCT024 OVC029 10/06 A3015 RMK AO1

More Conditions Fewer Conditions

Pressure 30.15 in
Visibility 10.0 miles
Clouds Scattered Clouds 2400 ft
Overcast 2900 ft
Dew Point 40 °F
Humidity 58%
Rainfall 0.04 in
Snow Depth Not available.
UV 2 out of 12
Pollen 3.30 out of 12
Air Quality Not available.
Flu Activity Not available.
METAR K2G4 221905Z AUTO 29008G14KT 262V352 10SM SCT024 OVC029 10/06 A3015 RMK AO1

More Conditions Fewer Conditions

10-Day Weather Forecast

Almanac

Astronomy

Sep. 22, 2014 Rise Set
Actual Time 7:05 AM EDT 7:14 PM EDT
Civil Twilight 6:38 AM EDT 7:41 PM EDT
Nautical Twilight 6:06 AM EDT 8:13 PM EDT
Astronomical Twilight 5:34 AM EDT 8:45 PM EDT
Moon 5:32 AM EDT 6:21 PM EDT
Length of Visible Light 13h 03m
Length of Day
12h 09m
Tomorrow will be 2m 35s shorter.
Waning Crescent, 2% of the Moon is Illuminated
Today
Waning Crescent
Sep 24
New
Oct 1
First Quarter
Oct 8
Full
Oct 15
Last Quarter

Today's Extremes

State Highs State Lows

Community

WunderPhotos

Upload Photos

1,755,514 photos uploaded!

WunderBlogs® & News

Nearby

Snow Depth

Station Depth Elevation
No new snow has been reported.

Earthquake Activity

City Distance Mag. Time & Date
No recent earthquake activity has been reported nearby.
Minimum magnitude displayed is 2.5.

Coastal Water Temperatures

Place Temperature
No Stations Reporting

Nearby Weather Stations